createdAt,value
2023-05-10T03:43:39.448Z,100598.25
2023-05-10T03:46:47.296Z,100598.25
2023-05-10T03:49:50.077Z,100601.84
2023-05-10T03:52:54.738Z,100604.22
2023-05-10T03:55:57.463Z,100596.16
2023-05-10T03:59:00.311Z,100604.34
2023-05-10T04:02:02.723Z,100598.19
2023-05-10T04:05:06.247Z,100597.03
2023-05-10T04:08:08.759Z,100601.81
2023-05-10T04:11:13.185Z,100599.09
2023-05-10T04:14:15.514Z,100597.28
2023-05-10T04:17:18.067Z,100591.09
2023-05-10T04:20:20.662Z,100594.47
2023-05-10T04:23:23.436Z,100603.50
2023-05-10T04:26:26.539Z,100601.66
2023-05-10T04:29:29.163Z,100600.22
2023-05-10T04:32:32.386Z,100598.81
2023-05-10T04:35:36.005Z,100600.97
2023-05-10T04:38:38.354Z,100596.63
2023-05-10T04:41:41.032Z,100601.75
2023-05-10T04:44:43.526Z,100603.37
2023-05-10T04:47:46.122Z,100602.66
2023-05-10T04:50:48.448Z,100602.00
2023-05-10T04:53:57.816Z,100605.16
2023-05-10T04:57:08.129Z,100602.53
2023-05-10T05:00:11.639Z,100592.87
2023-05-10T05:03:14.094Z,100601.44
2023-05-10T05:06:16.747Z,100601.66
2023-05-10T05:09:19.094Z,100599.69
2023-05-10T05:12:21.697Z,100599.69
2023-05-10T05:15:24.356Z,100601.34
2023-05-10T05:18:27.011Z,100599.25
2023-05-10T05:21:30.048Z,100610.09
2023-05-10T05:24:37.372Z,100611.28
2023-05-10T05:27:39.788Z,100603.06
2023-05-10T05:30:42.581Z,100610.50
2023-05-10T05:33:45.585Z,100616.13
2023-05-10T05:36:48.625Z,100617.66
2023-05-10T05:39:51.148Z,100621.06
2023-05-10T05:42:53.843Z,100621.50
2023-05-10T05:46:01.199Z,100620.56
2023-05-10T05:49:06.555Z,100628.56
2023-05-10T05:52:08.989Z,100630.81
2023-05-10T05:55:12.831Z,100632.84
2023-05-10T05:58:15.302Z,100629.47
2023-05-10T06:01:17.969Z,100633.37
2023-05-10T06:04:20.848Z,100629.97
2023-05-10T06:07:23.256Z,100637.50
2023-05-10T06:10:26.476Z,100631.31
2023-05-10T06:13:33.706Z,100629.41
2023-05-10T06:16:50.768Z,100632.38
2023-05-10T06:19:56.977Z,100636.00
2023-05-10T06:22:59.790Z,100642.41
2023-05-10T06:26:02.310Z,100633.47
2023-05-10T06:29:04.963Z,100641.63
2023-05-10T06:32:07.304Z,100637.25
2023-05-10T06:35:10.123Z,100650.63
2023-05-10T06:38:12.518Z,100645.09
2023-05-10T06:41:15.219Z,100656.41
2023-05-10T06:44:17.655Z,100648.59
2023-05-10T06:47:20.555Z,100645.97
2023-05-10T06:50:22.956Z,100641.81
2023-05-10T06:53:25.590Z,100639.03
2023-05-10T06:56:32.044Z,100641.19
2023-05-10T06:59:34.756Z,100633.94
2023-05-10T07:02:37.325Z,100641.06
2023-05-10T07:05:40.055Z,100644.53
2023-05-10T07:08:42.373Z,100633.78
2023-05-10T07:11:45.275Z,100633.41
2023-05-10T07:14:47.736Z,100638.25
2023-05-10T07:17:50.431Z,100631.50
2023-05-10T07:20:53.079Z,100631.72
2023-05-10T07:23:55.833Z,100630.88
2023-05-10T07:26:58.160Z,100636.87
2023-05-10T07:30:01.482Z,100632.97
2023-05-10T07:33:04.447Z,100631.41
2023-05-10T07:36:07.434Z,100621.38
2023-05-10T07:39:09.955Z,100620.94
2023-05-10T07:42:13.092Z,100624.72
2023-05-10T07:45:15.822Z,100613.84
2023-05-10T07:48:18.591Z,100624.19
2023-05-10T07:51:20.955Z,100623.28
2023-05-10T07:54:23.680Z,100619.87
2023-05-10T07:57:26.164Z,100623.78
2023-05-10T08:00:28.812Z,100618.97
2023-05-10T08:03:31.447Z,100622.91
2023-05-10T08:06:33.889Z,100623.59
2023-05-10T08:09:36.929Z,100623.00
2023-05-10T08:12:42.380Z,100622.66
2023-05-10T08:15:45.117Z,100628.06
2023-05-10T08:18:48.386Z,100616.28
2023-05-10T08:21:50.896Z,100621.81
2023-05-10T08:24:53.219Z,100617.84
2023-05-10T08:27:55.842Z,100622.72
2023-05-10T08:30:58.194Z,100619.06
2023-05-10T08:34:01.313Z,100615.44
2023-05-10T08:37:04.381Z,100621.59
2023-05-10T08:40:07.272Z,100623.19
2023-05-10T08:43:13.864Z,100623.09
2023-05-10T08:46:18.939Z,100613.28
2023-05-10T08:49:22.708Z,100619.72
2023-05-10T08:52:27.395Z,100617.09
2023-05-10T08:55:30.035Z,100624.69
2023-05-10T08:58:32.904Z,100615.44
2023-05-10T09:01:37.580Z,100615.84
2023-05-10T09:04:40.480Z,100613.78
2023-05-10T09:07:43.087Z,100618.62
2023-05-10T09:10:48.414Z,100615.56
2023-05-10T09:13:52.836Z,100608.75
2023-05-10T09:16:56.432Z,100609.84
2023-05-10T09:20:05.371Z,100605.34
2023-05-10T09:23:08.687Z,100605.34
2023-05-10T09:26:11.119Z,100610.56
2023-05-10T09:29:16.000Z,100614.75
2023-05-10T09:32:19.749Z,100608.00
2023-05-10T09:35:28.685Z,100605.84
2023-05-10T09:38:46.384Z,100601.56
2023-05-10T09:41:49.428Z,100601.56
2023-05-10T09:44:51.803Z,100592.84
2023-05-10T09:47:55.299Z,100595.09
2023-05-10T09:50:58.278Z,100596.53
2023-05-10T09:54:17.740Z,100594.47
2023-05-10T09:57:25.379Z,100593.84
2023-05-10T10:00:29.227Z,100597.84
2023-05-10T10:03:32.125Z,100590.88
2023-05-10T10:06:38.897Z,100591.31
2023-05-10T10:09:42.029Z,100579.66
2023-05-10T10:12:45.522Z,100573.50
2023-05-10T10:15:51.872Z,100574.91
2023-05-10T10:18:54.686Z,100573.84
2023-05-10T10:21:57.301Z,100572.78
2023-05-10T10:25:00.040Z,100568.63
2023-05-10T10:28:18.275Z,100569.97
2023-05-10T10:31:48.115Z,100556.34
2023-05-10T10:34:51.195Z,100577.56
2023-05-10T10:37:53.745Z,100563.47
2023-05-10T10:41:03.804Z,100553.84
2023-05-10T10:44:27.493Z,100551.06
2023-05-10T10:47:34.304Z,100545.03
2023-05-10T10:50:45.805Z,100547.50
2023-05-10T10:53:49.080Z,100551.34
2023-05-10T10:57:15.155Z,100545.53
2023-05-10T11:00:28.462Z,100545.06
2023-05-10T11:03:30.920Z,100538.69
2023-05-10T11:06:36.525Z,100539.19
2023-05-10T11:09:41.659Z,100526.41
2023-05-10T11:13:05.293Z,100521.69
2023-05-10T11:16:24.855Z,100514.91
2023-05-10T11:19:30.524Z,100517.09
2023-05-10T11:22:51.727Z,100519.84
2023-05-10T11:25:55.381Z,100506.06
2023-05-10T11:28:59.518Z,100512.09
2023-05-10T11:32:09.105Z,100509.31
2023-05-10T11:35:12.807Z,100503.66
2023-05-10T11:38:15.817Z,100501.13
2023-05-10T11:41:22.517Z,100495.69
2023-05-10T11:44:30.514Z,100494.37
2023-05-10T11:47:33.092Z,100495.16
2023-05-10T11:50:35.940Z,100494.44
2023-05-10T11:53:39.074Z,100491.03
2023-05-10T11:56:42.303Z,100504.34
2023-05-10T11:59:44.679Z,100493.19
2023-05-10T12:02:47.943Z,100489.97
2023-05-10T12:05:50.839Z,100496.69
2023-05-10T12:08:56.316Z,100496.97
2023-05-10T12:11:59.414Z,100489.00
2023-05-10T12:15:04.208Z,100496.97
2023-05-10T12:18:09.265Z,100488.56
2023-05-10T12:21:13.141Z,100499.91
2023-05-10T12:24:18.852Z,100497.72
2023-05-10T12:27:21.596Z,100490.03
2023-05-10T12:30:26.656Z,100486.19
2023-05-10T12:33:37.349Z,100486.97
2023-05-10T12:36:40.110Z,100481.22
2023-05-10T12:39:44.631Z,100483.25
2023-05-10T12:42:47.530Z,100480.94
2023-05-10T12:45:50.066Z,100465.66
2023-05-10T12:49:07.535Z,100467.03
2023-05-10T12:52:10.625Z,100467.75
2023-05-10T12:55:13.386Z,100472.25
2023-05-10T12:58:27.823Z,100463.00
2023-05-10T13:01:37.487Z,100456.59
2023-05-10T13:04:40.805Z,100450.31
2023-05-10T13:07:44.795Z,100452.28
2023-05-10T13:10:47.164Z,100445.31
2023-05-10T13:13:49.677Z,100439.59
2023-05-10T13:16:52.005Z,100446.53
2023-05-10T13:19:54.572Z,100429.69
2023-05-10T13:22:57.039Z,100427.59
2023-05-10T13:25:59.766Z,100428.31
2023-05-10T13:29:02.200Z,100415.63
2023-05-10T13:32:05.173Z,100422.97
2023-05-10T13:35:09.085Z,100415.63
2023-05-10T13:38:13.214Z,100414.00
2023-05-10T13:41:18.009Z,100410.59
2023-05-10T13:44:21.568Z,100414.34
2023-05-10T13:47:23.821Z,100412.72
2023-05-10T13:50:26.671Z,100400.19
2023-05-10T13:53:29.071Z,100404.09
2023-05-10T13:56:31.710Z,100401.75
2023-05-10T13:59:34.214Z,100398.62
2023-05-10T14:02:37.074Z,100388.84
2023-05-10T14:05:39.684Z,100388.84
2023-05-10T14:08:42.096Z,100378.72
2023-05-10T14:11:45.896Z,100377.31
2023-05-10T14:14:48.169Z,100370.31
2023-05-10T14:17:50.816Z,100372.31
2023-05-10T14:20:53.200Z,100376.81
2023-05-10T14:23:56.663Z,100370.31
2023-05-10T14:26:59.698Z,100361.19
2023-05-10T14:30:02.318Z,100361.41
2023-05-10T14:33:05.924Z,100361.41
2023-05-10T14:36:09.419Z,100369.44
2023-05-10T14:39:13.733Z,100364.75
2023-05-10T14:42:16.386Z,100363.31
2023-05-10T14:45:19.247Z,100360.66
2023-05-10T14:48:22.234Z,100355.31
2023-05-10T14:51:24.420Z,100362.97
2023-05-10T14:54:27.161Z,100353.84
2023-05-10T14:57:30.616Z,100356.38
2023-05-10T15:00:33.245Z,100363.88
2023-05-10T15:03:36.421Z,100354.16
2023-05-10T15:06:39.642Z,100362.13
2023-05-10T15:09:42.045Z,100362.41
2023-05-10T15:12:44.706Z,100363.25
2023-05-10T15:15:47.125Z,100361.56
2023-05-10T15:18:49.798Z,100366.13
2023-05-10T15:21:52.250Z,100354.63
2023-05-10T15:24:55.019Z,100363.28
2023-05-10T15:27:57.272Z,100358.00
2023-05-10T15:31:01.392Z,100362.53
2023-05-10T15:34:03.791Z,100357.22
2023-05-10T15:37:06.327Z,100360.97
2023-05-10T15:40:09.258Z,100360.03
2023-05-10T15:43:11.957Z,100365.09
2023-05-10T15:46:14.422Z,100355.41
2023-05-10T15:49:17.074Z,100356.16
2023-05-10T15:52:21.000Z,100346.53
2023-05-10T15:55:23.764Z,100350.41
2023-05-10T16:41:42.820Z,100362.59
2023-05-10T16:44:45.873Z,100362.59
2023-05-10T16:47:48.213Z,100359.97
2023-05-10T16:50:50.913Z,100363.72
2023-05-10T16:53:53.615Z,100362.16
2023-05-10T16:56:56.185Z,100371.22
2023-05-10T16:59:58.817Z,100367.84
2023-05-10T17:03:01.632Z,100373.38
2023-05-10T17:06:05.929Z,100369.50
2023-05-10T17:09:08.542Z,100378.69
2023-05-10T17:12:11.284Z,100385.19
2023-05-10T17:15:16.410Z,100378.91
2023-05-10T17:18:19.542Z,100384.44
2023-05-10T17:21:22.306Z,100384.94
